Aérodrome :
LOGIN :

S'inscrire | Disclaimer

   EN    FR    IT 

 










Légende :    VFR   VFR Marginal   IFR   IFR Intensif   IFR Très Intensif
Visi : 
Plafond : 
>= 8 km
>= 3000ft
5 à 8 km
1000 à 3000 ft
1500m à 5 km
500 à 1000 ft
800 à 1500m
200 à 500 ft
< 800m
< 200 ft
Symboles :   Orages  Brouillard  Fortes neiges  Fortes précipitations  Vent > 20 kt
SIGMETs :   Divers  Orages  Givrage  Turbulence  Onde Orograph.  Cendres Volcan.







- Altitude de l'aérodrome : 74 ft
- Code IATA : NDZ


ETMN - Cuxhaven Nordholz Sea AB

DERNIER METAR :
  • 210820Z 33012KT 1000 R08/1700U BR OVC001 13/12 Q1008 RED YLO TEMPO RED

METARs EXPIRÉS :
  • 210758Z 34011KT 1500 R08/2900D BR OVC001 13/12 Q1008 RED YLO TEMPO RED
  • 210745Z 34010KT 2000 BR OVC001 13/12 Q1008 RED YLO TEMPO RED
  • 210720Z 35011KT 3000 BR OVC001 13/12 Q1007 RED YLO TEMPO RED
  • 210705Z 35011KT 2800 BR OVC001 13/12 Q1007 RED YLO TEMPO RED
  • 210645Z 35009KT 4000 BR OVC002 13/12 Q1007 AMB YLO TEMPO RED
  • 210620Z 35011KT 7000 BKN004 14/12 Q1007 YLO YLO
  • 210520Z 36011KT 6000 OVC003 14/13 Q1007 YLO YLO

TAF TAF ETMN
Valide du 21 à 08h jusqu'au 21 à 17h UTC


210730Z 2108/2117 35010KT 2500 BR BKN003 BKN080
TEMPO 2108/2111 34012KT 1000 BR BKN001 BKN050
Pas de NOTAMs connus pour ce terrain.



MET'MAP, la Météo Aéronautique d'un coup d'oeil ! - Copyright ORBIFLY Décembre 2007 - Disclaimer

ORBIFLY MET'MAP TEAM :

Programmation & Développement : Alexandra Zaïnal
Conception & Développement : Baudouin d'Aumeries
Co-Programmation & Développement : Marc-Olivier Méhu
Soutien technique & logistique : Manuel Goepfert

Contact : metmap@orbifly.com




SOURCES & CREDITS :

   NOAA